createdAt,value
2023-02-28T00:02:42.464Z,0.59
2023-02-28T00:07:45.420Z,0.49
2023-02-28T00:12:49.916Z,0.66
2023-02-28T00:17:53.235Z,0.52
2023-02-28T00:22:56.391Z,0.62
2023-02-28T00:28:00.644Z,0.54
2023-02-28T00:33:03.656Z,0.43
2023-02-28T00:38:06.663Z,0.44
2023-02-28T00:43:13.100Z,0.36
2023-02-28T00:48:17.103Z,0.36
2023-02-28T00:53:20.024Z,0.37
2023-02-28T00:58:24.279Z,0.37
2023-02-28T01:03:27.946Z,0.37
2023-02-28T01:08:30.821Z,0.33
2023-02-28T01:13:35.155Z,0.17
2023-02-28T01:18:38.408Z,0.25
2023-02-28T01:23:41.905Z,0.29
2023-02-28T01:28:48.593Z,0.21
2023-02-28T01:33:51.871Z,0.25
2023-02-28T01:38:55.335Z,0.21
2023-02-28T01:44:04.735Z,0.13
2023-02-28T01:49:11.011Z,0.26
2023-02-28T01:54:18.702Z,0.13
2023-02-28T01:59:32.263Z,0.02
2023-02-28T02:04:42.266Z,-0.02
2023-02-28T02:09:45.197Z,-0.01
2023-02-28T02:15:01.553Z,0.12
2023-02-28T02:20:38.347Z,-0.09
2023-02-28T02:25:47.442Z,-0.16
2023-02-28T02:31:08.128Z,-0.26
2023-02-28T02:36:20.424Z,-0.09
2023-02-28T02:41:30.749Z,-0.16
2023-02-28T02:46:36.823Z,-0.10
2023-02-28T02:51:42.648Z,-0.12
2023-02-28T02:56:49.340Z,-0.08
2023-02-28T03:01:56.858Z,-0.18
2023-02-28T03:07:01.302Z,-0.19
2023-02-28T03:12:05.654Z,-0.16
2023-02-28T03:17:23.165Z,-0.26
2023-02-28T03:22:42.221Z,-0.33
2023-02-28T03:27:57.871Z,-0.42
2023-02-28T03:33:06.479Z,-0.36
2023-02-28T03:38:15.941Z,-0.33
2023-02-28T03:43:25.768Z,-0.48
2023-02-28T03:48:37.835Z,-0.55
2023-02-28T03:53:46.390Z,-0.58
2023-02-28T03:58:55.753Z,-0.69
2023-02-28T04:03:58.741Z,-0.80
2023-02-28T04:09:03.971Z,-0.82
2023-02-28T04:14:08.457Z,-0.98
2023-02-28T04:19:13.705Z,-1.03
2023-02-28T04:24:20.385Z,-1.10
2023-02-28T04:29:25.460Z,-1.33
2023-02-28T04:34:29.558Z,-1.33
2023-02-28T04:39:38.023Z,-1.48
2023-02-28T04:44:40.976Z,-1.48
2023-02-28T04:49:43.929Z,-1.56
2023-02-28T04:54:48.313Z,-1.51
2023-02-28T04:59:51.305Z,-1.77
2023-02-28T05:04:54.293Z,-1.81
2023-02-28T05:09:58.666Z,-1.85
2023-02-28T05:15:02.922Z,-1.98
2023-02-28T05:20:15.315Z,-2.04
2023-02-28T05:25:22.601Z,-1.94
2023-02-28T05:30:25.577Z,-1.96
2023-02-28T05:35:28.827Z,-2.15
2023-02-28T05:40:33.191Z,-2.06
2023-02-28T05:45:36.151Z,-2.04
2023-02-28T05:50:39.119Z,-2.19
2023-02-28T05:55:43.543Z,-2.50
2023-02-28T06:00:46.558Z,-2.49
2023-02-28T06:05:49.479Z,-2.59
2023-02-28T06:10:54.129Z,-2.29
2023-02-28T06:15:57.079Z,-2.14
2023-02-28T06:20:59.962Z,-2.20
2023-02-28T06:26:04.301Z,-2.17
2023-02-28T06:31:11.865Z,-2.17
2023-02-28T06:36:16.298Z,-2.06
2023-02-28T06:41:20.744Z,-1.84
2023-02-28T06:46:24.271Z,-1.52
2023-02-28T06:51:28.468Z,-1.33
2023-02-28T06:56:33.045Z,-1.18
2023-02-28T07:01:36.013Z,-0.62
2023-02-28T07:06:39.256Z,-0.33
2023-02-28T07:11:44.009Z,-0.10
2023-02-28T07:16:46.891Z,-0.68
2023-02-28T07:21:50.145Z,-0.76
2023-02-28T07:26:54.372Z,-0.73
2023-02-28T07:31:57.548Z,-0.66
2023-02-28T07:37:01.066Z,-0.15
2023-02-28T07:42:10.462Z,0.81
2023-02-28T07:47:13.482Z,-0.22
2023-02-28T07:52:16.387Z,-0.05
2023-02-28T07:57:20.683Z,1.13
2023-02-28T08:02:23.607Z,1.76
2023-02-28T08:07:26.546Z,2.28
2023-02-28T08:12:30.831Z,1.88
2023-02-28T08:17:35.418Z,2.63
2023-02-28T08:22:38.504Z,2.57
2023-02-28T08:27:42.763Z,2.32
2023-02-28T08:32:45.909Z,2.37
2023-02-28T08:37:50.008Z,2.58
2023-02-28T08:42:54.315Z,1.51
2023-02-28T08:47:57.594Z,1.84
2023-02-28T08:53:00.804Z,1.90
2023-02-28T08:58:05.036Z,2.18
2023-02-28T09:03:10.355Z,2.31
2023-02-28T09:08:15.704Z,2.05
2023-02-28T09:13:20.155Z,2.45
2023-02-28T09:18:23.272Z,2.52
2023-02-28T09:23:27.058Z,2.36
2023-02-28T09:28:31.400Z,3.13
2023-02-28T09:33:35.321Z,1.81
2023-02-28T09:38:38.300Z,2.83
2023-02-28T09:43:46.424Z,2.80
2023-02-28T09:48:51.547Z,2.63
2023-02-28T09:54:01.289Z,2.94
2023-02-28T09:59:12.354Z,3.68
2023-02-28T10:04:28.420Z,3.91
2023-02-28T10:09:34.799Z,3.40
2023-02-28T10:14:48.011Z,4.18
2023-02-28T10:20:01.522Z,3.70
2023-02-28T10:25:18.323Z,1.97
2023-02-28T10:30:22.757Z,2.37
2023-02-28T10:35:28.081Z,1.95
2023-02-28T10:40:34.671Z,1.85
2023-02-28T10:45:39.288Z,2.12
2023-02-28T10:50:46.284Z,2.69
2023-02-28T10:55:59.463Z,1.36
2023-02-28T11:01:04.003Z,2.33
2023-02-28T11:06:09.971Z,3.03
2023-02-28T11:11:12.931Z,3.45
2023-02-28T11:16:18.150Z,3.12
2023-02-28T11:21:29.053Z,2.98
2023-02-28T11:26:41.803Z,2.72
2023-02-28T11:31:46.214Z,1.92
2023-02-28T11:36:50.478Z,2.35
2023-02-28T11:42:11.675Z,2.43
2023-02-28T11:47:26.070Z,2.83
2023-02-28T11:52:42.664Z,3.09
2023-02-28T11:58:26.749Z,3.29
2023-02-28T12:03:37.060Z,3.45
2023-02-28T12:08:50.952Z,3.70
2023-02-28T12:14:06.004Z,2.82
2023-02-28T12:19:19.684Z,2.94
2023-02-28T12:24:41.304Z,3.39
2023-02-28T12:29:51.449Z,3.23
2023-02-28T12:35:00.387Z,3.25
2023-02-28T12:40:07.726Z,3.10
2023-02-28T12:45:16.870Z,3.54
2023-02-28T12:50:22.141Z,3.55
2023-02-28T12:55:34.199Z,3.07
2023-02-28T13:00:40.331Z,2.94
2023-02-28T13:06:07.306Z,3.58
2023-02-28T13:11:26.364Z,3.62
2023-02-28T13:16:29.616Z,3.38
2023-02-28T13:21:44.928Z,3.18
2023-02-28T13:27:33.592Z,3.36
2023-02-28T13:32:41.184Z,3.33
2023-02-28T13:37:47.127Z,3.39
2023-02-28T13:42:51.629Z,3.33
2023-02-28T13:47:56.884Z,3.28
2023-02-28T13:53:30.359Z,3.46
2023-02-28T13:58:50.445Z,3.38
2023-02-28T14:04:28.015Z,3.33
2023-02-28T14:09:36.257Z,3.49
2023-02-28T14:14:58.988Z,2.84
2023-02-28T14:20:04.207Z,2.61
2023-02-28T14:25:27.030Z,2.46
2023-02-28T14:31:05.174Z,3.59
2023-02-28T14:36:22.623Z,3.55
2023-02-28T14:41:33.286Z,2.65
2023-02-28T14:46:40.362Z,3.10
2023-02-28T14:51:44.138Z,2.82
2023-02-28T14:56:52.501Z,2.91
2023-02-28T15:02:20.278Z,3.08
2023-02-28T15:07:29.281Z,3.05
2023-02-28T15:12:33.654Z,3.00
2023-02-28T15:17:37.582Z,2.77
2023-02-28T15:22:41.291Z,2.77
2023-02-28T15:27:49.212Z,2.70
2023-02-28T15:33:06.215Z,2.58
2023-02-28T15:38:18.317Z,2.72
2023-02-28T15:43:26.880Z,2.58
2023-02-28T15:48:32.949Z,2.63
2023-02-28T15:53:39.755Z,2.29
2023-02-28T15:58:44.582Z,2.44
2023-02-28T16:03:50.698Z,2.35
2023-02-28T16:08:54.205Z,2.35
2023-02-28T16:13:59.161Z,2.26
2023-02-28T16:19:02.180Z,2.27
2023-02-28T16:24:05.309Z,2.22
2023-02-28T16:29:11.689Z,1.99
2023-02-28T16:34:14.624Z,1.89
2023-02-28T16:39:17.508Z,1.84
2023-02-28T16:44:29.659Z,1.74
2023-02-28T16:49:32.819Z,1.62
2023-02-28T16:54:35.724Z,1.52
2023-02-28T16:59:40.004Z,1.37
2023-02-28T17:04:42.953Z,1.32
2023-02-28T17:09:46.764Z,1.18
2023-02-28T17:14:51.187Z,1.13
2023-02-28T17:19:54.101Z,1.02
2023-02-28T17:24:58.711Z,0.97
2023-02-28T17:30:04.096Z,0.83
2023-02-28T17:35:08.221Z,0.81
2023-02-28T17:40:16.786Z,0.51
2023-02-28T17:45:21.742Z,0.37
2023-02-28T17:50:24.637Z,0.50
2023-02-28T17:55:27.720Z,0.48
2023-02-28T18:00:34.463Z,0.44
2023-02-28T18:05:38.165Z,0.35
2023-02-28T18:10:41.123Z,0.24
2023-02-28T18:15:45.405Z,-0.03
2023-02-28T18:20:49.449Z,0.06
2023-02-28T18:25:52.354Z,0.09
2023-02-28T18:30:56.628Z,0.06
2023-02-28T18:36:00.198Z,0.02
2023-02-28T18:41:06.206Z,-0.04
2023-02-28T18:46:12.483Z,-0.05
2023-02-28T18:51:17.938Z,-0.15
2023-02-28T18:56:23.181Z,-0.21
2023-02-28T19:01:31.088Z,-0.26
2023-02-28T19:06:34.928Z,-0.21
2023-02-28T19:11:37.984Z,-0.43
2023-02-28T19:16:42.413Z,-0.53
2023-02-28T19:21:45.470Z,-0.54
2023-02-28T19:26:48.584Z,-0.59
2023-02-28T19:31:53.409Z,-0.64
2023-02-28T19:36:56.869Z,-0.76
2023-02-28T19:41:59.869Z,-0.93
2023-02-28T19:47:04.514Z,-0.80
2023-02-28T19:52:11.702Z,-0.93
2023-02-28T19:57:18.522Z,-0.91
2023-02-28T20:02:23.976Z,-1.01
2023-02-28T20:07:27.202Z,-0.95
2023-02-28T20:12:30.277Z,-0.99
2023-02-28T20:17:34.625Z,-1.03
2023-02-28T20:22:38.435Z,-1.11
2023-02-28T20:27:41.520Z,-1.12
2023-02-28T20:32:45.895Z,-1.16
2023-02-28T20:37:49.445Z,-1.25
2023-02-28T20:42:52.373Z,-1.21
2023-02-28T20:47:56.720Z,-1.39
2023-02-28T20:52:59.630Z,-1.38
2023-02-28T20:58:03.028Z,-1.59
2023-02-28T21:03:07.377Z,-1.41
2023-02-28T21:08:10.364Z,-1.47
2023-02-28T21:13:13.325Z,-1.51
2023-02-28T21:18:17.649Z,-1.62
2023-02-28T21:23:20.511Z,-1.79
2023-02-28T21:28:23.410Z,-1.72
2023-02-28T21:33:27.663Z,-2.27
2023-02-28T21:38:30.913Z,-1.92
2023-02-28T21:43:33.912Z,-1.90
2023-02-28T21:48:39.107Z,-1.99
2023-02-28T21:53:42.873Z,-2.07
2023-02-28T21:58:46.329Z,-2.00
2023-02-28T22:03:51.346Z,-2.18
2023-02-28T22:08:55.719Z,-2.36
2023-02-28T22:13:59.664Z,-2.35
2023-02-28T22:19:06.385Z,-2.32
2023-02-28T22:24:10.363Z,-2.38
2023-02-28T22:29:13.357Z,-2.39
2023-02-28T22:34:17.601Z,-2.40
2023-02-28T22:39:21.427Z,-2.49
2023-02-28T22:44:24.424Z,-2.63
2023-02-28T22:49:28.887Z,-2.67
2023-02-28T22:54:31.784Z,-2.70
2023-02-28T22:59:34.657Z,-2.72
2023-02-28T23:04:39.408Z,-2.68
2023-02-28T23:09:42.518Z,-2.79
2023-02-28T23:14:45.430Z,-2.81
2023-02-28T23:19:49.693Z,-3.14
2023-02-28T23:24:54.493Z,-3.07
2023-02-28T23:29:57.499Z,-2.94
2023-02-28T23:35:02.645Z,-3.04
2023-02-28T23:40:08.614Z,-3.03
2023-02-28T23:45:12.225Z,-3.31
2023-02-28T23:50:17.609Z,-3.15
2023-02-28T23:55:21.119Z,-3.21
